Terminal Aerodrome Forecast
Issued by NWS

Home | Current Version | Previous Version | Text Only | Print | Product List | Glossary On
Versions: 1 2 3 4 5 6 7 8 9 10 11 12 13 14 15 16 17 18 19 20 21 22 23 24 25 26 27 28 29 30 31 32
000
FTUS45 KLKN 212320
TAFTPH
TAF
KTPH 212320Z 2200/2224 32015G25KT P6SM SCT100
     FM220500 36010KT P6SM SCT110 BKN160
     FM221600 34013G23KT P6SM FEW110 SCT160
     FM221900 33025G35KT P6SM SCT160=

USA.gov is the U.S. government's official web portal to all federal, state and local government web resources and services.